createdAt,value
2024-05-09T00:01:53.040Z,2.63
2024-05-09T00:04:22.865Z,2.10
2024-05-09T00:06:55.243Z,2.13
2024-05-09T00:09:24.924Z,2.20
2024-05-09T00:11:54.756Z,2.27
2024-05-09T00:14:24.589Z,2.17
2024-05-09T00:16:54.399Z,2.30
2024-05-09T00:19:24.260Z,1.83
2024-05-09T00:21:56.595Z,2.47
2024-05-09T00:24:26.352Z,2.00
2024-05-09T00:26:56.033Z,2.00
2024-05-09T00:29:26.313Z,2.27
2024-05-09T00:31:56.158Z,2.10
2024-05-09T00:34:26.147Z,2.20
2024-05-09T00:36:58.506Z,2.13
2024-05-09T00:39:28.251Z,2.30
2024-05-09T00:41:59.577Z,2.23
2024-05-09T00:44:29.393Z,1.90
2024-05-09T00:46:59.312Z,1.90
2024-05-09T00:49:29.251Z,1.90
2024-05-09T00:52:01.746Z,1.90
2024-05-09T00:54:31.517Z,2.33
2024-05-09T00:57:02.202Z,1.57
2024-05-09T00:59:31.939Z,1.40
2024-05-09T01:02:01.829Z,1.97
2024-05-09T01:04:31.657Z,1.60
2024-05-09T01:07:04.043Z,2.27
2024-05-09T01:09:33.748Z,2.00
2024-05-09T01:12:03.621Z,1.87
2024-05-09T01:14:33.801Z,1.80
2024-05-09T01:17:03.720Z,1.70
2024-05-09T01:19:33.496Z,1.97
2024-05-09T01:22:08.032Z,1.90
2024-05-09T01:24:40.421Z,2.13
2024-05-09T01:27:10.113Z,1.53
2024-05-09T01:29:39.833Z,1.87
2024-05-09T01:32:09.735Z,1.60
2024-05-09T01:34:39.611Z,1.90
2024-05-09T01:37:09.290Z,1.80
2024-05-09T01:39:41.614Z,2.00
2024-05-09T01:42:11.308Z,1.93
2024-05-09T01:44:41.086Z,1.43
2024-05-09T01:47:10.945Z,2.20
2024-05-09T01:49:40.870Z,1.93
2024-05-09T01:52:10.596Z,1.70
2024-05-09T01:54:42.949Z,1.83
2024-05-09T01:57:12.664Z,1.70
2024-05-09T01:59:42.346Z,1.90
2024-05-09T02:02:12.259Z,1.80
2024-05-09T02:04:42.224Z,1.90
2024-05-09T02:07:11.977Z,1.73
2024-05-09T02:09:44.285Z,1.90
2024-05-09T02:12:14.117Z,1.40
2024-05-09T02:14:43.848Z,1.63
2024-05-09T02:17:13.642Z,2.07
2024-05-09T02:19:43.433Z,1.70
2024-05-09T02:22:13.123Z,2.07
2024-05-09T02:24:45.431Z,1.60
2024-05-09T02:27:15.171Z,1.80
2024-05-09T02:29:45.694Z,1.73
2024-05-09T02:32:15.421Z,1.80
2024-05-09T02:34:45.285Z,1.70
2024-05-09T02:37:12.383Z,2.07
2024-05-09T02:39:42.115Z,2.10
2024-05-09T02:42:11.810Z,1.97
2024-05-09T02:44:41.529Z,1.70
2024-05-09T02:47:08.792Z,1.60
2024-05-09T02:49:38.850Z,1.70
2024-05-09T02:52:06.118Z,1.70
2024-05-09T02:54:35.817Z,2.17
2024-05-09T02:57:02.927Z,1.90
2024-05-09T02:59:35.343Z,1.70
2024-05-09T03:02:02.551Z,1.87
2024-05-09T03:04:32.426Z,2.07
2024-05-09T03:06:59.756Z,1.70
2024-05-09T03:09:29.497Z,1.80
2024-05-09T03:11:56.705Z,1.67
2024-05-09T03:14:26.634Z,1.57
2024-05-09T03:16:56.439Z,1.60
2024-05-09T03:19:26.255Z,1.80
2024-05-09T03:21:53.482Z,2.00
2024-05-09T03:24:23.184Z,1.40
2024-05-09T03:26:50.276Z,1.77
2024-05-09T03:29:20.034Z,2.00
2024-05-09T03:31:47.239Z,1.93
2024-05-09T03:34:19.672Z,2.00
2024-05-09T03:36:49.439Z,1.60
2024-05-09T03:39:19.166Z,1.67
2024-05-09T03:41:49.150Z,1.77
2024-05-09T03:44:18.998Z,1.77
2024-05-09T03:46:48.773Z,1.70
2024-05-09T03:49:18.679Z,1.37
2024-05-09T03:51:48.470Z,1.80
2024-05-09T03:54:15.532Z,1.93
2024-05-09T03:56:45.322Z,1.77
2024-05-09T03:59:12.640Z,1.63
2024-05-09T04:01:42.604Z,1.57
2024-05-09T04:04:10.097Z,1.53
2024-05-09T04:06:43.161Z,1.60
2024-05-09T04:09:10.236Z,2.00
2024-05-09T04:11:40.113Z,1.40
2024-05-09T04:14:07.295Z,1.50
2024-05-09T04:16:37.001Z,2.20
2024-05-09T04:19:04.137Z,1.83
2024-05-09T04:21:33.911Z,1.30
2024-05-09T04:24:03.759Z,1.77
2024-05-09T04:26:33.523Z,1.60
2024-05-09T04:29:00.814Z,1.57
2024-05-09T04:31:31.037Z,1.50
2024-05-09T04:33:58.244Z,1.70
2024-05-09T04:36:28.097Z,1.50
2024-05-09T04:38:55.164Z,1.50
2024-05-09T04:41:27.595Z,1.83
2024-05-09T04:43:55.091Z,1.70
2024-05-09T04:46:24.842Z,1.50
2024-05-09T04:48:53.672Z,1.60
2024-05-09T04:51:23.526Z,1.53
2024-05-09T04:53:50.684Z,1.47
2024-05-09T04:56:20.450Z,1.60
2024-05-09T04:58:50.215Z,1.70
2024-05-09T05:01:20.046Z,1.70
2024-05-09T05:03:47.313Z,1.50
2024-05-09T05:06:17.140Z,1.60
2024-05-09T05:08:44.369Z,1.30
2024-05-09T05:11:14.768Z,1.30
2024-05-09T05:13:41.907Z,1.60
2024-05-09T05:16:14.260Z,1.67
2024-05-09T05:18:41.467Z,1.60
2024-05-09T05:21:11.352Z,1.60
2024-05-09T05:23:40.683Z,1.60
2024-05-09T05:26:10.548Z,1.40
2024-05-09T05:28:37.644Z,1.40
2024-05-09T05:31:07.484Z,1.40
2024-05-09T05:33:37.289Z,1.43
2024-05-09T05:36:07.302Z,1.50
2024-05-09T05:38:34.428Z,1.63
2024-05-09T05:41:04.163Z,1.43
2024-05-09T05:43:31.259Z,1.40
2024-05-09T05:46:00.987Z,1.40
2024-05-09T05:48:28.301Z,1.73
2024-05-09T05:51:04.233Z,1.50
2024-05-09T05:53:31.818Z,1.50
2024-05-09T05:56:01.677Z,1.40
2024-05-09T05:58:28.797Z,1.60
2024-05-09T06:00:58.620Z,1.30
2024-05-09T06:03:25.879Z,1.70
2024-05-09T06:05:55.634Z,1.60
2024-05-09T06:08:28.001Z,1.37
2024-05-09T06:10:59.734Z,1.20
2024-05-09T06:13:26.895Z,1.87
2024-05-09T06:15:56.683Z,1.33
2024-05-09T06:18:24.086Z,1.30
2024-05-09T06:20:54.049Z,1.80
2024-05-09T06:23:21.222Z,1.40
2024-05-09T06:25:56.077Z,1.63
2024-05-09T06:28:23.229Z,1.40
2024-05-09T06:30:52.965Z,1.40
2024-05-09T06:33:20.271Z,1.50
2024-05-09T06:35:50.424Z,1.33
2024-05-09T06:38:17.617Z,1.70
2024-05-09T06:40:47.379Z,1.57
2024-05-09T06:43:19.051Z,1.37
2024-05-09T06:45:49.661Z,1.50
2024-05-09T06:48:18.026Z,1.33
2024-05-09T06:50:48.141Z,1.40
2024-05-09T06:53:15.571Z,1.40
2024-05-09T06:55:45.480Z,1.37
2024-05-09T06:58:12.645Z,1.43
2024-05-09T07:00:45.108Z,1.70
2024-05-09T07:03:14.383Z,1.70
2024-05-09T07:05:47.545Z,1.50
2024-05-09T07:08:16.241Z,1.40
2024-05-09T07:10:46.451Z,1.40
2024-05-09T07:13:14.494Z,1.30
2024-05-09T07:15:47.186Z,1.50
2024-05-09T07:18:15.872Z,1.60
2024-05-09T07:20:47.302Z,1.80
2024-05-09T07:23:15.257Z,1.13
2024-05-09T07:25:45.391Z,1.30
2024-05-09T07:28:13.715Z,1.40
2024-05-09T07:30:43.535Z,1.50
2024-05-09T07:33:15.955Z,1.53
2024-05-09T07:35:45.902Z,1.23
2024-05-09T07:38:13.202Z,1.20
2024-05-09T07:40:43.159Z,1.60
2024-05-09T07:43:11.608Z,1.50
2024-05-09T07:45:50.510Z,1.70
2024-05-09T07:52:39.303Z,1.37
2024-05-09T07:53:47.098Z,1.20
2024-05-09T07:56:22.593Z,1.50
2024-05-09T07:58:51.442Z,1.50
2024-05-09T08:01:21.556Z,1.20
2024-05-09T08:03:51.669Z,1.27
2024-05-09T08:06:21.510Z,1.33
2024-05-09T08:08:48.629Z,1.60
2024-05-09T08:11:19.584Z,1.17
2024-05-09T08:13:46.744Z,1.30
2024-05-09T08:16:16.624Z,1.37
2024-05-09T08:18:43.846Z,1.60
2024-05-09T08:21:16.256Z,1.47
2024-05-09T08:23:43.387Z,1.30
2024-05-09T08:26:13.139Z,1.60
2024-05-09T08:28:40.255Z,1.40
2024-05-09T08:31:11.665Z,1.10
2024-05-09T08:33:43.982Z,1.50
2024-05-09T08:36:16.405Z,1.40
2024-05-09T08:38:43.494Z,1.30
2024-05-09T08:41:16.113Z,1.47
2024-05-09T08:43:43.221Z,1.67
2024-05-09T08:46:13.118Z,1.30
2024-05-09T08:48:40.405Z,1.20
2024-05-09T08:51:10.182Z,1.50
2024-05-09T08:53:39.897Z,1.40
2024-05-09T08:56:09.813Z,1.20
2024-05-09T08:58:37.111Z,1.40
2024-05-09T09:01:07.633Z,1.43
2024-05-09T09:03:34.893Z,1.20
2024-05-09T09:06:05.035Z,1.20
2024-05-09T09:08:32.117Z,1.43
2024-05-09T09:11:04.503Z,1.40
2024-05-09T09:13:31.637Z,1.50
2024-05-09T09:16:02.851Z,1.20
2024-05-09T09:18:30.704Z,1.20
2024-05-09T09:21:00.813Z,1.33
2024-05-09T09:23:30.237Z,1.40
2024-05-09T09:26:01.487Z,1.40
2024-05-09T09:28:31.395Z,1.33
2024-05-09T09:31:04.393Z,1.10
2024-05-09T09:33:32.182Z,1.47
2024-05-09T09:36:02.284Z,1.57
2024-05-09T09:38:29.501Z,1.43
2024-05-09T09:40:59.323Z,1.60
2024-05-09T09:43:26.546Z,1.30
2024-05-09T09:46:00.106Z,1.20
2024-05-09T09:48:27.316Z,1.13
2024-05-09T09:50:57.145Z,1.30
2024-05-09T09:53:24.278Z,1.37
2024-05-09T09:55:54.325Z,1.20
2024-05-09T09:58:21.568Z,2.13
2024-05-09T10:00:51.492Z,1.30
2024-05-09T10:03:21.483Z,1.37
2024-05-09T10:05:51.456Z,1.20
2024-05-09T10:08:18.671Z,1.40
2024-05-09T10:10:49.005Z,1.40
2024-05-09T10:13:16.421Z,1.10
2024-05-09T10:15:47.911Z,1.40
2024-05-09T10:18:15.464Z,1.23
2024-05-09T10:20:49.389Z,1.27
2024-05-09T10:23:23.828Z,1.60
2024-05-09T10:26:00.345Z,1.10
2024-05-09T10:28:27.632Z,1.20
2024-05-09T10:31:06.658Z,1.50
2024-05-09T10:33:37.323Z,1.23
2024-05-09T10:36:10.100Z,1.40
2024-05-09T10:38:37.200Z,1.43
2024-05-09T10:41:06.989Z,1.40
2024-05-09T10:43:34.328Z,1.50
2024-05-09T10:46:04.374Z,1.23
2024-05-09T10:48:31.589Z,1.23
2024-05-09T10:51:01.361Z,1.50
2024-05-09T10:53:31.083Z,1.37
2024-05-09T10:56:01.018Z,1.10
2024-05-09T10:58:28.266Z,1.30
2024-05-09T11:00:58.331Z,1.10
2024-05-09T11:03:25.600Z,1.23
2024-05-09T11:05:55.752Z,1.20
2024-05-09T11:08:23.118Z,1.50
2024-05-09T11:10:55.912Z,1.17
2024-05-09T11:13:29.369Z,1.17
2024-05-09T11:15:59.218Z,1.50
2024-05-09T11:18:28.187Z,1.20
2024-05-09T11:20:59.778Z,1.40
2024-05-09T11:23:27.237Z,1.20
2024-05-09T11:25:59.848Z,1.53
2024-05-09T11:28:28.291Z,1.40
2024-05-09T11:31:07.248Z,1.30
2024-05-09T11:33:36.763Z,1.20
2024-05-09T11:36:06.720Z,1.30
2024-05-09T11:38:34.094Z,1.20
2024-05-09T11:41:06.485Z,1.10
2024-05-09T11:43:33.773Z,1.40
2024-05-09T11:46:04.295Z,1.23
2024-05-09T11:48:32.377Z,1.40
2024-05-09T11:51:02.461Z,1.33
2024-05-09T11:53:29.588Z,1.20
2024-05-09T11:55:59.291Z,1.20
2024-05-09T11:58:34.191Z,1.20
2024-05-09T12:01:04.857Z,1.40
2024-05-09T12:03:32.302Z,1.30
2024-05-09T12:06:02.341Z,1.10
2024-05-09T12:08:29.608Z,1.30
2024-05-09T12:10:59.502Z,1.63
2024-05-09T12:13:29.524Z,1.07
2024-05-09T12:15:59.346Z,1.30
2024-05-09T12:18:26.580Z,1.20
2024-05-09T12:20:56.312Z,1.40
2024-05-09T12:23:23.416Z,1.30
2024-05-09T12:25:53.132Z,1.30
2024-05-09T12:28:20.614Z,1.40
2024-05-09T12:30:53.040Z,1.20
2024-05-09T12:33:21.038Z,1.30
2024-05-09T12:35:51.314Z,1.40
2024-05-09T12:38:18.562Z,1.30
2024-05-09T12:40:48.352Z,1.30
2024-05-09T12:43:15.636Z,1.50
2024-05-09T12:45:45.485Z,1.37
2024-05-09T12:48:15.383Z,1.70
2024-05-09T12:50:45.295Z,1.30
2024-05-09T12:53:12.554Z,1.37
2024-05-09T12:55:48.949Z,1.20
2024-05-09T12:58:23.553Z,1.97
2024-05-09T13:00:54.129Z,1.20
2024-05-09T13:03:24.270Z,1.30
2024-05-09T13:05:54.379Z,1.40
2024-05-09T13:08:21.500Z,1.40
2024-05-09T13:10:51.267Z,1.20
2024-05-09T13:13:18.593Z,1.47
2024-05-09T13:15:48.464Z,1.23
2024-05-09T13:18:15.771Z,1.97
2024-05-09T13:20:48.130Z,1.50
2024-05-09T13:23:15.234Z,1.33
2024-05-09T13:25:45.084Z,1.63
2024-05-09T13:28:12.203Z,1.53
2024-05-09T13:30:42.534Z,1.30
2024-05-09T13:33:11.028Z,1.17
2024-05-09T13:35:45.616Z,1.40
2024-05-09T13:38:19.844Z,1.40
2024-05-09T13:40:50.677Z,1.40
2024-05-09T13:43:18.379Z,1.30
2024-05-09T13:45:48.536Z,1.33
2024-05-09T13:48:15.946Z,1.40
2024-05-09T13:50:45.765Z,1.90
2024-05-09T13:53:12.876Z,1.20
2024-05-09T13:55:45.648Z,1.30
2024-05-09T13:58:12.791Z,1.43
2024-05-09T14:00:47.302Z,1.67
2024-05-09T14:03:16.745Z,1.67
2024-05-09T14:05:48.032Z,1.50
2024-05-09T14:08:15.972Z,1.33
2024-05-09T14:10:48.804Z,1.47
2024-05-09T14:13:16.371Z,1.47
2024-05-09T14:15:46.383Z,1.50
2024-05-09T14:18:14.420Z,1.30
2024-05-09T14:20:44.643Z,1.40
2024-05-09T14:23:11.758Z,1.20
2024-05-09T14:25:43.401Z,1.50
2024-05-09T14:28:14.325Z,1.27
2024-05-09T14:30:44.108Z,1.50
2024-05-09T14:33:11.728Z,1.13
2024-05-09T14:35:41.606Z,1.20
2024-05-09T14:38:09.882Z,1.30
2024-05-09T14:40:43.286Z,1.40
2024-05-09T14:43:14.757Z,1.03
2024-05-09T14:45:45.088Z,1.47
2024-05-09T14:48:12.506Z,1.27
2024-05-09T14:50:42.473Z,1.47
2024-05-09T14:53:09.938Z,1.33
2024-05-09T14:55:41.363Z,1.17
2024-05-09T14:58:10.193Z,1.40
2024-05-09T15:00:47.753Z,1.30
2024-05-09T15:03:17.413Z,1.60
2024-05-09T15:05:47.220Z,1.33
2024-05-09T15:08:14.393Z,1.30
2024-05-09T15:10:46.581Z,1.10
2024-05-09T15:13:16.434Z,1.30
2024-05-09T15:15:49.631Z,1.10
2024-05-09T15:18:17.176Z,1.40
2024-05-09T15:20:47.253Z,1.00
2024-05-09T15:23:14.684Z,1.27
2024-05-09T15:25:44.735Z,1.20
2024-05-09T15:28:11.999Z,1.20
2024-05-09T15:30:45.480Z,1.50
2024-05-09T15:33:17.110Z,1.13
2024-05-09T15:35:47.404Z,1.00
2024-05-09T15:38:14.926Z,1.17
2024-05-09T15:40:44.800Z,1.17
2024-05-09T15:43:12.407Z,1.50
2024-05-09T15:45:42.411Z,1.33
2024-05-09T15:48:10.344Z,1.20
2024-05-09T15:50:43.543Z,1.10
2024-05-09T15:53:12.006Z,1.30
2024-05-09T15:55:42.617Z,1.50
2024-05-09T15:58:09.972Z,1.20
2024-05-09T16:00:42.611Z,1.37
2024-05-09T16:03:12.758Z,1.23
2024-05-09T16:05:47.247Z,1.20
2024-05-09T16:08:15.169Z,1.40
2024-05-09T16:10:46.148Z,1.10
2024-05-09T16:13:14.384Z,1.23
2024-05-09T16:15:44.522Z,1.20
2024-05-09T16:18:11.759Z,1.10
2024-05-09T16:20:43.436Z,1.40
2024-05-09T16:23:14.617Z,1.20
2024-05-09T16:25:46.247Z,1.20
2024-05-09T16:28:13.477Z,1.40
2024-05-09T16:30:43.322Z,1.20
2024-05-09T16:33:10.884Z,1.30
2024-05-09T16:35:40.951Z,1.10
2024-05-09T16:38:08.075Z,1.03
2024-05-09T16:40:41.463Z,1.50
2024-05-09T16:43:09.565Z,1.20
2024-05-09T16:45:39.975Z,1.37
2024-05-09T16:48:07.788Z,1.10
2024-05-09T16:50:37.726Z,1.27
2024-05-09T16:53:05.904Z,1.30
2024-05-09T16:55:36.741Z,1.30
2024-05-09T16:58:08.127Z,1.10
2024-05-09T17:00:42.251Z,1.20
2024-05-09T17:03:12.702Z,1.13
2024-05-09T17:05:43.852Z,1.17
2024-05-09T17:08:11.388Z,1.20
2024-05-09T17:10:41.189Z,1.10
2024-05-09T17:13:13.709Z,1.20
2024-05-09T17:15:44.223Z,1.33
2024-05-09T17:18:14.005Z,1.20
2024-05-09T17:20:41.166Z,1.10
2024-05-09T17:23:13.924Z,1.27
2024-05-09T17:25:41.549Z,1.30
2024-05-09T17:28:13.943Z,1.17
2024-05-09T17:30:42.364Z,1.13
2024-05-09T17:33:15.391Z,1.17
2024-05-09T17:35:42.594Z,1.23
2024-05-09T17:38:12.291Z,1.10
2024-05-09T17:40:40.084Z,1.17
2024-05-09T17:43:10.906Z,1.30
2024-05-09T17:45:41.876Z,1.20
2024-05-09T17:48:12.592Z,1.30
2024-05-09T17:50:40.281Z,1.30
2024-05-09T17:53:11.405Z,1.27
2024-05-09T17:55:38.707Z,1.03
2024-05-09T17:58:08.599Z,1.47
2024-05-09T18:00:39.718Z,1.20
2024-05-09T18:03:14.835Z,1.10
2024-05-09T18:05:43.532Z,1.30
2024-05-09T18:08:14.313Z,1.30
2024-05-09T18:10:41.863Z,1.03
2024-05-09T18:13:12.349Z,1.50
2024-05-09T18:15:39.972Z,1.30
2024-05-09T18:18:10.715Z,1.10
2024-05-09T18:20:44.608Z,1.30
2024-05-09T18:23:17.108Z,1.10
2024-05-09T18:25:45.254Z,1.10
2024-05-09T18:28:15.233Z,1.37
2024-05-09T18:30:43.116Z,1.40
2024-05-09T18:33:13.419Z,1.20
2024-05-09T18:35:44.413Z,1.20
2024-05-09T18:38:14.221Z,1.10
2024-05-09T18:40:43.763Z,1.20
2024-05-09T18:43:16.030Z,1.17
2024-05-09T18:45:43.587Z,1.30
2024-05-09T18:48:13.470Z,1.20
2024-05-09T18:50:41.601Z,1.30
2024-05-09T18:53:14.308Z,1.10
2024-05-09T18:55:41.525Z,1.20
2024-05-09T18:58:11.404Z,1.20
2024-05-09T19:00:41.332Z,1.30
2024-05-09T19:03:14.770Z,1.10
2024-05-09T19:05:43.748Z,1.10
2024-05-09T19:08:17.505Z,1.00
2024-05-09T19:10:45.878Z,1.23
2024-05-09T19:13:16.556Z,1.23
2024-05-09T19:15:44.427Z,1.20
2024-05-09T19:18:15.256Z,1.00
2024-05-09T19:20:42.900Z,1.00
2024-05-09T19:23:13.058Z,1.10
2024-05-09T19:25:42.899Z,1.23
2024-05-09T19:28:12.754Z,1.00
2024-05-09T19:30:42.241Z,1.00
2024-05-09T19:33:13.796Z,1.10
2024-05-09T19:35:41.723Z,1.17
2024-05-09T19:38:11.764Z,1.30
2024-05-09T19:40:38.979Z,1.30
2024-05-09T19:43:11.624Z,1.07
2024-05-09T19:45:38.998Z,1.07
2024-05-09T19:48:09.243Z,1.20
2024-05-09T19:50:42.169Z,1.20
2024-05-09T19:53:14.232Z,1.00
2024-05-09T19:55:41.444Z,1.10
2024-05-09T19:58:13.979Z,1.27
2024-05-09T20:00:43.171Z,1.20
2024-05-09T20:03:14.975Z,1.20
2024-05-09T20:05:43.071Z,1.40
2024-05-09T20:08:12.882Z,1.10
2024-05-09T20:10:40.071Z,1.00
2024-05-09T20:13:10.196Z,1.23
2024-05-09T20:15:40.201Z,1.10
2024-05-09T20:18:10.268Z,1.00
2024-05-09T20:20:41.415Z,1.30
2024-05-09T20:23:13.394Z,1.17
2024-05-09T20:25:40.538Z,1.00
2024-05-09T20:28:11.736Z,1.20
2024-05-09T20:30:42.712Z,1.23
2024-05-09T20:33:14.130Z,1.07
2024-05-09T20:35:41.354Z,1.23
2024-05-09T20:38:11.090Z,1.10
2024-05-09T20:40:39.548Z,0.97
2024-05-09T20:43:10.639Z,1.20
2024-05-09T20:45:38.275Z,1.00
2024-05-09T20:48:11.851Z,1.10
2024-05-09T20:50:41.667Z,1.10
2024-05-09T20:53:13.514Z,1.13
2024-05-09T20:55:41.685Z,1.07
2024-05-09T20:58:11.735Z,1.00
2024-05-09T21:00:42.775Z,1.10
2024-05-09T21:03:18.055Z,1.13
2024-05-09T21:05:45.788Z,1.20
2024-05-09T21:08:15.899Z,1.00
2024-05-09T21:10:43.164Z,1.23
2024-05-09T21:13:13.193Z,1.23
2024-05-09T21:15:40.372Z,1.10
2024-05-09T21:18:10.300Z,1.00
2024-05-09T21:20:40.090Z,1.10
2024-05-09T21:23:09.833Z,1.20
2024-05-09T21:25:36.905Z,1.20
2024-05-09T21:28:06.692Z,1.10
2024-05-09T21:30:41.269Z,1.07
2024-05-09T21:33:14.219Z,1.00
2024-05-09T21:35:45.224Z,1.10
2024-05-09T21:38:16.099Z,1.07
2024-05-09T21:40:43.366Z,1.10
2024-05-09T21:43:13.342Z,1.37
2024-05-09T21:45:40.544Z,1.10
2024-05-09T21:48:10.845Z,1.07
2024-05-09T21:50:41.143Z,1.13
2024-05-09T21:53:14.732Z,1.10
2024-05-09T21:55:41.938Z,1.10
2024-05-09T21:58:11.776Z,1.07
2024-05-09T22:00:40.226Z,1.20
2024-05-09T22:03:11.410Z,0.90
2024-05-09T22:05:43.515Z,1.17
2024-05-09T22:08:16.066Z,1.10
2024-05-09T22:10:43.296Z,1.20
2024-05-09T22:13:13.436Z,1.20
2024-05-09T22:15:41.033Z,1.20
2024-05-09T22:18:11.604Z,1.20
2024-05-09T22:20:44.638Z,1.00
2024-05-09T22:23:18.345Z,1.30
2024-05-09T22:25:45.518Z,1.20
2024-05-09T22:28:16.009Z,1.20
2024-05-09T22:30:45.743Z,1.10
2024-05-09T22:33:15.991Z,1.00
2024-05-09T22:35:43.353Z,1.00
2024-05-09T22:38:13.122Z,1.00
2024-05-09T22:40:48.026Z,1.10
2024-05-09T22:43:21.014Z,1.13
2024-05-09T22:45:50.249Z,1.40
2024-05-09T22:48:20.592Z,1.20
2024-05-09T22:50:47.827Z,1.23
2024-05-09T22:53:17.835Z,1.07
2024-05-09T22:55:47.549Z,1.03
2024-05-09T22:58:17.361Z,1.27
2024-05-09T23:00:44.681Z,1.13
2024-05-09T23:03:15.845Z,1.20
2024-05-09T23:05:43.050Z,1.00
2024-05-09T23:08:13.246Z,0.90
2024-05-09T23:10:40.359Z,1.20
2024-05-09T23:13:12.730Z,1.10
2024-05-09T23:15:40.622Z,1.20
2024-05-09T23:18:10.749Z,1.40
2024-05-09T23:20:39.832Z,1.10
2024-05-09T23:23:11.398Z,1.10
2024-05-09T23:25:39.200Z,1.20
2024-05-09T23:28:09.090Z,1.27
2024-05-09T23:30:40.790Z,1.10
2024-05-09T23:33:12.953Z,1.20
2024-05-09T23:35:41.488Z,0.90
2024-05-09T23:38:11.260Z,1.20
2024-05-09T23:40:40.803Z,1.10
2024-05-09T23:43:12.642Z,1.10
2024-05-09T23:45:43.137Z,1.07
2024-05-09T23:48:13.235Z,1.10
2024-05-09T23:50:41.106Z,1.00
2024-05-09T23:53:11.501Z,1.07
2024-05-09T23:55:39.195Z,1.00
2024-05-09T23:58:09.462Z,0.90
